Les articles d'ExpertMaritime.pro


Votre expert maritime indépendant Xavier Braive est disponible sur la zone de Saujon - Port de Ribérou - 17600

(Charente-Maritime - Poitou-Charentes)


Voir plan
Situation :

Le port de Ribérou est un port de pêche et de plaisance situé au fond de l'estuaire de la Seudre, à Saujon. C'est l'un des deux ports de la ville avec celui du Breuil, un peu en aval.

Actif dès le XIe siècle, il prend son aspect actuel à partir de 1842, sous l'impulsion du ministre des travaux publics de l'époque, Jules Dufaure, " enfant du pays", qui tente ainsi de relancer le commerce maritime et les activités halieutiques, alors en déclin.
Idéalement situé, en marge du centre-ville, de la base de loisirs de La Lande et des espaces préservés des marais de la Seudre (chemins de halage transformés en sentiers de promenade), il est devenu un des hauts lieux du tourisme saujonnais, où sont notamment organisés des soirées thématiques et le feu d'artifice du 14 juillet.

En 2011, le port de Ribérou a été l'objet d'un important programme de rénovation urbaine conduit par l'architecte-urbaniste Sophie Blanchet, complétant des efforts déjà mis en œuvre en centre-ville.
Une partie du site est reconvertie en esplanade piétonne, dotée d'un mobilier urbain contemporain : il se veut une sorte de "trait d'union" entre la base de loisirs de La Lande (piscine, tennis, boulodrome, stade, terrain de basket...), les sentiers de promenade et de découverte des marais de la Seudre, qui débutent au port, et le centre-ville.
L'inauguration du nouveau port a lieu le 18 août 2012, en présence du maire, Pascal Ferchaud, et d'une foule nombreuse venue profiter des animations : concerts, jeux nautiques, joutes, etc.

Aujourd'hui, le port de Ribérou est un petit port de pêche et de plaisance. C'est également une base de départ pour certains sports nautiques (canoë-kayak). Sa longueur est d'environ 250 mètres pour 40 mètres.
Depuis Ribérou, il est possible d'atteindre successivement les ports du Breuil (Saujon), de L'Éguille, de Mornac, de Chaillevette, de Chatressac (Chaillevette), des Grandes Roches et d'Orivol (Étaules), de La Grève à Duret et de Coux (Arvert), de La Grève (La Tremblade) et de La Cayenne (Marennes).


En 2011, la municipalité entame un programme de rénovation du site portuaire, confié à l'architecte-urbaniste Sophie Blanchet. Il consiste en une transformation des anciens parkings en esplanade piétonne, véritable espace de rencontre doté d'un mobilier urbain moderne et à terme, d'espaces verts. Depuis les quais, bordés d'immeubles bourgeois, de petites rues pittoresques et fleuries de roses trémières permettent de sillonner le quartier et de rejoindre le centre-ville.

Le pont à écluse de Ribérou, dit « pont des eaux contraires », a été rénové en 2010. Il marque la séparation entre les eaux de l'estuaire (côté port : eaux saumâtres) et les eaux du fleuve (côté bassin de retenue : eaux douces).



Adresse :

Mairie
1, place Denfert Rochereau
17600 SAUJON

Tél/Fax : 05 46 02 80 07 / 05 46 02 91 92

E-mail : contact@mairie-saujon.fr
Météo locale sur la zone Port de Ribérou
Heure (UTC) Dir.Vent Vit.Vent (nds) Force (Bft) T°min T°max P (mb) Hum.Rel.
03/08/2021 - 15:00:00 au 03/08/2021 - 18:00:00 231° (SW) 8 3 18°C 19°C 1015 77 %
03/08/2021 - 18:00:00 au 03/08/2021 - 21:00:00 192° (SSW) 7 3 16°C 17°C 1015 89 %
03/08/2021 - 21:00:00 au 04/08/2021 - 00:00:00 183° (S) 10 3 16°C 16°C 1013 96 %
04/08/2021 - 00:00:00 au 04/08/2021 - 03:00:00 228° (SW) 13 4 18°C 18°C 1011 90 %
04/08/2021 - 03:00:00 au 04/08/2021 - 06:00:00 244° (WSW) 13 4 19°C 19°C 1011 88 %
04/08/2021 - 06:00:00 au 04/08/2021 - 09:00:00 251° (WSW) 17 5 21°C 21°C 1012 73 %
04/08/2021 - 09:00:00 au 04/08/2021 - 12:00:00 263° (W) 15 4 21°C 21°C 1012 76 %
04/08/2021 - 12:00:00 au 04/08/2021 - 15:00:00 288° (WNW) 16 4 22°C 22°C 1013 73 %
04/08/2021 - 15:00:00 au 04/08/2021 - 18:00:00 299° (WNW) 14 4 19°C 19°C 1014 78 %
04/08/2021 - 18:00:00 au 04/08/2021 - 21:00:00 309° (NW) 8 3 18°C 18°C 1016 73 %
04/08/2021 - 21:00:00 au 05/08/2021 - 00:00:00 266° (W) 7 3 17°C 17°C 1016 78 %
05/08/2021 - 00:00:00 au 05/08/2021 - 03:00:00 248° (WSW) 6 2 16°C 16°C 1015 87 %
05/08/2021 - 03:00:00 au 05/08/2021 - 06:00:00 227° (SW) 5 2 17°C 17°C 1015 85 %
05/08/2021 - 06:00:00 au 05/08/2021 - 09:00:00 230° (SW) 10 3 21°C 21°C 1014 67 %
05/08/2021 - 09:00:00 au 05/08/2021 - 12:00:00 231° (SW) 14 4 22°C 22°C 1013 60 %
05/08/2021 - 12:00:00 au 05/08/2021 - 15:00:00 234° (SW) 15 4 22°C 22°C 1012 66 %
05/08/2021 - 15:00:00 au 05/08/2021 - 18:00:00 245° (WSW) 14 4 20°C 20°C 1011 84 %
05/08/2021 - 18:00:00 au 05/08/2021 - 21:00:00 257° (WSW) 13 4 19°C 19°C 1011 82 %
05/08/2021 - 21:00:00 au 06/08/2021 - 00:00:00 276° (W) 13 4 18°C 18°C 1012 83 %
06/08/2021 - 00:00:00 au 06/08/2021 - 03:00:00 271° (W) 10 3 17°C 17°C 1012 81 %
06/08/2021 - 03:00:00 au 06/08/2021 - 06:00:00 267° (W) 8 3 18°C 18°C 1012 79 %
06/08/2021 - 06:00:00 au 06/08/2021 - 09:00:00 266° (W) 10 3 20°C 20°C 1012 64 %
06/08/2021 - 09:00:00 au 06/08/2021 - 12:00:00 256° (WSW) 10 3 21°C 21°C 1012 56 %
06/08/2021 - 12:00:00 au 06/08/2021 - 15:00:00 264° (W) 10 3 21°C 21°C 1011 56 %
06/08/2021 - 15:00:00 au 06/08/2021 - 18:00:00 260° (W) 6 2 20°C 20°C 1009 59 %
06/08/2021 - 18:00:00 au 06/08/2021 - 21:00:00 231° (SW) 5 2 18°C 18°C 1009 69 %
06/08/2021 - 21:00:00 au 07/08/2021 - 00:00:00 230° (SW) 7 3 18°C 18°C 1009 70 %
07/08/2021 - 00:00:00 au 07/08/2021 - 03:00:00 244° (WSW) 9 3 18°C 18°C 1008 74 %
07/08/2021 - 03:00:00 au 07/08/2021 - 06:00:00 236° (SW) 10 3 18°C 18°C 1008 76 %
07/08/2021 - 06:00:00 au 07/08/2021 - 09:00:00 254° (WSW) 14 4 20°C 20°C 1009 72 %
07/08/2021 - 09:00:00 au 07/08/2021 - 12:00:00 253° (WSW) 15 4 22°C 22°C 1010 62 %
07/08/2021 - 12:00:00 au 07/08/2021 - 15:00:00 262° (W) 15 4 22°C 22°C 1010 59 %
07/08/2021 - 15:00:00 au 07/08/2021 - 18:00:00 271° (W) 12 4 20°C 20°C 1012 67 %
07/08/2021 - 18:00:00 au 07/08/2021 - 21:00:00 279° (W) 6 2 17°C 17°C 1013 81 %
07/08/2021 - 21:00:00 au 08/08/2021 - 00:00:00 266° (W) 6 2 16°C 16°C 1015 85 %
08/08/2021 - 00:00:00 au 08/08/2021 - 03:00:00 275° (W) 4 2 15°C 15°C 1015 85 %
08/08/2021 - 03:00:00 au 08/08/2021 - 06:00:00 274° (W) 2 1 16°C 16°C 1016 82 %
08/08/2021 - 06:00:00 au 08/08/2021 - 09:00:00 287° (WNW) 5 2 20°C 20°C 1017 64 %
08/08/2021 - 09:00:00 au 08/08/2021 - 12:00:00 288° (WNW) 9 3 22°C 22°C 1018 52 %
08/08/2021 - 12:00:00 au 08/08/2021 - 15:00:00 294° (WNW) 11 4 22°C 22°C 1019 52 %
openweathermap
Ces informations sont partiellement extraites de Wikipedia, et des sites pertinents pour cette zone. Compilation d'informations de Xavier Braive.
Xavier Braive, Expert Maritime Plaisance se déplace sur Port de Ribérou, Saujon, 17600, Charente-Maritime

Welcome to Cross-Channel yachtmen !

we can deliver survey reports in english, in case of dammage or prior to buy / sell a boat in France (pre-purchase survey), and more specifically on the Atlantic coast.

Uw onafhankelijk jachtexpert

verkrijkbaar op de Atlantische kust, bij aankoop of reparatie van jachten (metaal, polyester of composiet). Rapporten in Nederlands

BRAIVE, Xavier
Xavier Braive
Expert Maritime
Nouvelle Aquitaine
France
06 71 50 20 17